Kezdőlap
METAR-TAF:

METAR-TAF

Repülőterek :

Aupaluk, Québec, Kanada

földrajzi szélesség: 59-17-48N, földrajzi hosszúság: 069-35-59W, magasság: 35 m

Jelenlegi meteorológiai megfigyelések

A jelentés 43 perccel ezelõtt készült, 16:00 UTC
Dél-délkeleti szél 14 kt
Hőmérséklet -4°C
Páratartalom 74%
Légköri nyomás 1001 hPa
Látótávolság: 24.1 km
Kevés felhő 1500 lábon
Kevés felhő 2800 lábon
Kevés felhő 7200 lábon
Szakadozott felhőzet 25000 lábon

METAR: CYLA 281600Z 15014KT 15SM FEW015 FEW028 FEW072 BKN250 M04/M08 A2956 RMK SC1SC1AS1CI7 SC TR SC TR AS TR SLP013

Idő: 12:43 (16:43 UTC)


TAF: hiányzik

Meteorológiai megfigyelések és előrejelzések több, mint 4000 repülőtéren (METAR és TAF jelentéseket).

A térképen piros és sárga pontok jelzik az elérhető meteorológiai állomásokat.

Mozgassa az egeret a pont fölött, hogy megjelenjen az állomás neve.

Azután kattintson az időjárási megfigyelések és előrejelzések megtekintéséhez.

A térkép megváltoztatása: kattintson a fekete keresztel jelölt zöld gombra ráközelítéshez, a vonallal jelölt zöld gombra távolításhoz, vagy a zöld nyilakra a szomszédos térképek eléréséhez.


METAR-TAF: